Mary Kay Eckstein — WDH6450 — position and weather

sailwx.info

Track history (hours):
 
Tides and Currents Weather Stations Pressure Air Temp Water Temp Dewpoint Dewpoint Depression Visibility Wind Speed Wind Dir Waves Ship Positions

Mary Kay Eckstein

Owner: Marquette Transportation Co. LLC, Paducah, KY. More information available from US FCC via Universal Licensing System and Coast Guard Vessel Documentation Center.

Last reported at 2018-Jun-20 11:38 UTC. Time now 2018-Jun-22 22:57 UTC.
Position N 32°49' W 091°09'.

Length 52 m; draft 3.4 m.

Type: Towing. MMSI: 367638080.

Date/timePositionNaut miles runAvg speedWind from/ knotsBaromVisibWave heightAir tempDewpointWater temp
2018-Jun-20 11:38N 32°49' W 091°09'2 4.7
2018-Jun-20 11:16N 32°47' W 091°09'1 4.7
2018-Jun-20 11:00N 32°46' W 091°09'4 3.9
2018-Jun-20 09:56N 32°44' W 091°05'0 0.1
2018-Jun-20 09:27N 32°44' W 091°04'0 0.0
2018-Jun-20 09:00N 32°44' W 091°04'0 0.0
2018-Jun-20 08:30N 32°44' W 091°05'0 0.0
2018-Jun-20 08:00N 32°44' W 091°05'0 0.0
2018-Jun-20 07:30N 32°44' W 091°05'0 0.0
2018-Jun-20 07:00N 32°44' W 091°05'0 0.0
2018-Jun-20 06:30N 32°44' W 091°05'0 0.0
2018-Jun-20 06:00N 32°44' W 091°05'1 2.9
2018-Jun-20 05:30N 32°43' W 091°03'2 4.2
2018-Jun-20 05:00N 32°41' W 091°04'2 3.8
2018-Jun-20 04:30N 32°40' W 091°06'2 4.0
2018-Jun-20 04:00N 32°40' W 091°08'2 4.8
2018-Jun-20 03:30N 32°37' W 091°09'0 0.1
2018-Jun-20 02:59N 32°37' W 091°09'0 0.0
2018-Jun-20 02:30N 32°37' W 091°09'0 0.0
2018-Jun-20 02:00N 32°37' W 091°09'0 0.5
2018-Jun-20 01:30N 32°37' W 091°09'2 4.5
2018-Jun-20 01:00N 32°35' W 091°08'2 4.8
2018-Jun-20 00:30N 32°33' W 091°06'2 4.4
2018-Jun-20 00:00N 32°31' W 091°06'3 5.0
2018-Jun-19 23:30N 32°29' W 091°07'2 4.8
2018-Jun-19 23:00N 32°27' W 091°05'3 5.0
2018-Jun-19 22:30N 32°26' W 091°02'2 4.8
2018-Jun-19 22:00N 32°25' W 090°60'2 4.6
2018-Jun-19 21:30N 32°23' W 091°00'2 3.8
2018-Jun-19 21:00N 32°21' W 090°59'2 3.7
2018-Jun-19 20:30N 32°21' W 090°57'0 0.0
2018-Jun-19 20:00N 32°21' W 090°57'2 4.2
2018-Jun-19 19:30N 32°20' W 090°54'2 4.3
2018-Jun-19 19:00N 32°18' W 090°55'3 5.1
2018-Jun-19 18:30N 32°16' W 090°57'2 4.3
2018-Jun-19 18:00N 32°15' W 090°59'3 5.3
2018-Jun-19 17:30N 32°12' W 090°59'2 4.6
2018-Jun-19 17:00N 32°10' W 091°00'2 4.7
2018-Jun-19 16:30N 32°08' W 091°01'2 4.5
2018-Jun-19 16:00N 32°08' W 091°03'2 4.8
2018-Jun-19 15:30N 32°08' W 091°06'6 4.6
2018-Jun-19 14:12N 32°02' W 091°04'1 6.2
2018-Jun-19 14:00N 32°01' W 091°05'3 5.1
2018-Jun-19 13:27N 31°59' W 091°07'3 5.1
2018-Jun-19 12:57N 31°59' W 091°10'3 4.7
2018-Jun-19 12:25N 31°57' W 091°11'3 5.4
2018-Jun-19 11:56N 31°54' W 091°12'3 5.1
2018-Jun-19 11:16N 31°52' W 091°15'2 4.6
2018-Jun-19 10:56N 31°51' W 091°17'3 4.7
2018-Jun-19 10:15N 31°51' W 091°20'6 4.7
2018-Jun-19 08:55N 31°45' W 091°22'3 5.4
2018-Jun-19 08:23N 31°43' W 091°24'21 4.3
2018-Jun-19 03:24N 31°22' W 091°29'5 5.0
2018-Jun-19 02:18N 31°17' W 091°31'  
2018-Jun-12 08:30N 31°42' W 091°24'4 8.5
2018-Jun-12 07:58N 31°46' W 091°22'4 9.0
2018-Jun-12 07:30N 31°50' W 091°21'7 8.0
2018-Jun-12 06:37N 31°53' W 091°13'2 8.7
2018-Jun-12 06:26N 31°54' W 091°12'4 9.1
2018-Jun-12 05:59N 31°58' W 091°11'4 8.3
2018-Jun-12 05:28N 31°59' W 091°06'4 9.0
2018-Jun-12 04:59N 32°03' W 091°03'4 8.6
2018-Jun-12 04:31N 32°06' W 091°06'3 5.3
2018-Jun-12 04:00N 32°07' W 091°03'3 7.0
2018-Jun-12 03:30N 32°10' W 091°00'5 9.1
2018-Jun-12 03:00N 32°14' W 090°59'4 8.7
2018-Jun-12 02:30N 32°18' W 090°56'3 5.9
2018-Jun-12 02:00N 32°20' W 090°54'3 6.0
2018-Jun-12 01:30N 32°21' W 090°57'3 6.2
2018-Jun-12 01:00N 32°23' W 090°60'4 7.1
2018-Jun-12 00:30N 32°26' W 091°02'5 8.9
2018-Jun-12 00:00N 32°29' W 091°07'4 8.9
2018-Jun-11 23:31N 32°33' W 091°06'4 8.4
2018-Jun-11 23:00N 32°36' W 091°09'4 7.9
2018-Jun-11 22:30N 32°40' W 091°07'  
Track history (hours):
 
Tides and Currents Weather Stations Pressure Air Temp Water Temp Dewpoint Dewpoint Depression Visibility Wind Speed Wind Dir Waves Ship Positions

Mary Kay Eckstein

Owner: Marquette Transportation Co. LLC, Paducah, KY. More information available from US FCC via Universal Licensing System and Coast Guard Vessel Documentation Center.

Last reported at 2018-Jun-20 11:38 UTC. Time now 2018-Jun-22 22:57 UTC.
Position N 32°49' W 091°09'.

Length 52 m; draft 3.4 m.

Type: Towing. MMSI: 367638080.

Date/timePositionNaut miles runAvg speedWind from/ knotsBaromVisibWave heightAir tempDewpointWater temp
2018-Jun-20 11:38N 32°49' W 091°09'2 4.7
2018-Jun-20 11:16N 32°47' W 091°09'1 4.7
2018-Jun-20 11:00N 32°46' W 091°09'4 3.9
2018-Jun-20 09:56N 32°44' W 091°05'0 0.1
2018-Jun-20 09:27N 32°44' W 091°04'0 0.0
2018-Jun-20 09:00N 32°44' W 091°04'0 0.0
2018-Jun-20 08:30N 32°44' W 091°05'0 0.0
2018-Jun-20 08:00N 32°44' W 091°05'0 0.0
2018-Jun-20 07:30N 32°44' W 091°05'0 0.0
2018-Jun-20 07:00N 32°44' W 091°05'0 0.0
2018-Jun-20 06:30N 32°44' W 091°05'0 0.0
2018-Jun-20 06:00N 32°44' W 091°05'1 2.9
2018-Jun-20 05:30N 32°43' W 091°03'2 4.2
2018-Jun-20 05:00N 32°41' W 091°04'2 3.8
2018-Jun-20 04:30N 32°40' W 091°06'2 4.0
2018-Jun-20 04:00N 32°40' W 091°08'2 4.8
2018-Jun-20 03:30N 32°37' W 091°09'0 0.1
2018-Jun-20 02:59N 32°37' W 091°09'0 0.0
2018-Jun-20 02:30N 32°37' W 091°09'0 0.0
2018-Jun-20 02:00N 32°37' W 091°09'0 0.5
2018-Jun-20 01:30N 32°37' W 091°09'2 4.5
2018-Jun-20 01:00N 32°35' W 091°08'2 4.8
2018-Jun-20 00:30N 32°33' W 091°06'2 4.4
2018-Jun-20 00:00N 32°31' W 091°06'3 5.0
2018-Jun-19 23:30N 32°29' W 091°07'2 4.8
2018-Jun-19 23:00N 32°27' W 091°05'3 5.0
2018-Jun-19 22:30N 32°26' W 091°02'2 4.8
2018-Jun-19 22:00N 32°25' W 090°60'2 4.6
2018-Jun-19 21:30N 32°23' W 091°00'2 3.8
2018-Jun-19 21:00N 32°21' W 090°59'2 3.7
2018-Jun-19 20:30N 32°21' W 090°57'0 0.0
2018-Jun-19 20:00N 32°21' W 090°57'2 4.2
2018-Jun-19 19:30N 32°20' W 090°54'2 4.3
2018-Jun-19 19:00N 32°18' W 090°55'3 5.1
2018-Jun-19 18:30N 32°16' W 090°57'2 4.3
2018-Jun-19 18:00N 32°15' W 090°59'3 5.3
2018-Jun-19 17:30N 32°12' W 090°59'2 4.6
2018-Jun-19 17:00N 32°10' W 091°00'2 4.7
2018-Jun-19 16:30N 32°08' W 091°01'2 4.5
2018-Jun-19 16:00N 32°08' W 091°03'2 4.8
2018-Jun-19 15:30N 32°08' W 091°06'6 4.6
2018-Jun-19 14:12N 32°02' W 091°04'1 6.2
2018-Jun-19 14:00N 32°01' W 091°05'3 5.1
2018-Jun-19 13:27N 31°59' W 091°07'3 5.1
2018-Jun-19 12:57N 31°59' W 091°10'3 4.7
2018-Jun-19 12:25N 31°57' W 091°11'3 5.4
2018-Jun-19 11:56N 31°54' W 091°12'3 5.1
2018-Jun-19 11:16N 31°52' W 091°15'2 4.6
2018-Jun-19 10:56N 31°51' W 091°17'3 4.7
2018-Jun-19 10:15N 31°51' W 091°20'6 4.7
2018-Jun-19 08:55N 31°45' W 091°22'3 5.4
2018-Jun-19 08:23N 31°43' W 091°24'21 4.3
2018-Jun-19 03:24N 31°22' W 091°29'5 5.0
2018-Jun-19 02:18N 31°17' W 091°31'  
2018-Jun-12 08:30N 31°42' W 091°24'4 8.5
2018-Jun-12 07:58N 31°46' W 091°22'4 9.0
2018-Jun-12 07:30N 31°50' W 091°21'7 8.0
2018-Jun-12 06:37N 31°53' W 091°13'2 8.7
2018-Jun-12 06:26N 31°54' W 091°12'4 9.1
2018-Jun-12 05:59N 31°58' W 091°11'4 8.3
2018-Jun-12 05:28N 31°59' W 091°06'4 9.0
2018-Jun-12 04:59N 32°03' W 091°03'4 8.6
2018-Jun-12 04:31N 32°06' W 091°06'3 5.3
2018-Jun-12 04:00N 32°07' W 091°03'3 7.0
2018-Jun-12 03:30N 32°10' W 091°00'5 9.1
2018-Jun-12 03:00N 32°14' W 090°59'4 8.7
2018-Jun-12 02:30N 32°18' W 090°56'3 5.9
2018-Jun-12 02:00N 32°20' W 090°54'3 6.0
2018-Jun-12 01:30N 32°21' W 090°57'3 6.2
2018-Jun-12 01:00N 32°23' W 090°60'4 7.1
2018-Jun-12 00:30N 32°26' W 091°02'5 8.9
2018-Jun-12 00:00N 32°29' W 091°07'4 8.9
2018-Jun-11 23:31N 32°33' W 091°06'4 8.4
2018-Jun-11 23:00N 32°36' W 091°09'4 7.9
2018-Jun-11 22:30N 32°40' W 091°07'  

Dump ship's entire track history